sensor_id;sensor_type;location;lat;lon;timestamp;pressure;altitude;pressure_sealevel;temperature;humidity
11682;BME280;5897;42.640;23.310;2022-12-18T00:00:58;94612.75;;;8.34;100.00
11682;BME280;5897;42.640;23.310;2022-12-18T00:03:25;94608.97;;;8.28;100.00
11682;BME280;5897;42.640;23.310;2022-12-18T00:05:52;94617.03;;;8.28;100.00
11682;BME280;5897;42.640;23.310;2022-12-18T00:08:19;94618.16;;;8.27;100.00
11682;BME280;5897;42.640;23.310;2022-12-18T00:10:46;94618.50;;;8.36;100.00
11682;BME280;5897;42.640;23.310;2022-12-18T00:13:14;94622.44;;;8.18;100.00
11682;BME280;5897;42.640;23.310;2022-12-18T00:15:42;94623.59;;;8.17;100.00
11682;BME280;5897;42.640;23.310;2022-12-18T00:18:09;94628.22;;;8.13;100.00
11682;BME280;5897;42.640;23.310;2022-12-18T00:20:37;94622.84;;;8.16;100.00
11682;BME280;5897;42.640;23.310;2022-12-18T00:23:04;94636.72;;;8.11;100.00
11682;BME280;5897;42.640;23.310;2022-12-18T00:25:33;94634.75;;;8.22;100.00
11682;BME280;5897;42.640;23.310;2022-12-18T00:28:00;94630.91;;;8.23;100.00
11682;BME280;5897;42.640;23.310;2022-12-18T00:30:28;94641.25;;;8.28;100.00
11682;BME280;5897;42.640;23.310;2022-12-18T00:32:55;94640.13;;;8.22;100.00
11682;BME280;5897;42.640;23.310;2022-12-18T00:35:22;94646.63;;;8.28;100.00
11682;BME280;5897;42.640;23.310;2022-12-18T00:37:49;94641.09;;;8.49;100.00
11682;BME280;5897;42.640;23.310;2022-12-18T00:40:16;94647.28;;;8.46;100.00
11682;BME280;5897;42.640;23.310;2022-12-18T00:42:43;94658.44;;;8.45;100.00
11682;BME280;5897;42.640;23.310;2022-12-18T00:45:24;94648.78;;;8.51;100.00
11682;BME280;5897;42.640;23.310;2022-12-18T00:47:53;94652.94;;;8.66;100.00
11682;BME280;5897;42.640;23.310;2022-12-18T00:50:20;94652.78;;;8.83;100.00
11682;BME280;5897;42.640;23.310;2022-12-18T00:52:47;94655.13;;;8.78;100.00
11682;BME280;5897;42.640;23.310;2022-12-18T00:55:14;94659.38;;;8.75;100.00
11682;BME280;5897;42.640;23.310;2022-12-18T00:57:41;94649.34;;;8.28;100.00
11682;BME280;5897;42.640;23.310;2022-12-18T01:00:10;94642.88;;;8.08;100.00
11682;BME280;5897;42.640;23.310;2022-12-18T01:02:37;94665.88;;;8.23;100.00
11682;BME280;5897;42.640;23.310;2022-12-18T01:05:07;94671.34;;;8.02;100.00
11682;BME280;5897;42.640;23.310;2022-12-18T01:07:34;94675.22;;;7.94;100.00
11682;BME280;5897;42.640;23.310;2022-12-18T01:10:00;94675.97;;;7.95;100.00
11682;BME280;5897;42.640;23.310;2022-12-18T01:12:27;94686.00;;;7.91;100.00
11682;BME280;5897;42.640;23.310;2022-12-18T01:14:54;94687.97;;;7.83;100.00
11682;BME280;5897;42.640;23.310;2022-12-18T01:17:21;94693.78;;;7.57;100.00
11682;BME280;5897;42.640;23.310;2022-12-18T01:19:48;94690.69;;;7.66;100.00
11682;BME280;5897;42.640;23.310;2022-12-18T01:22:16;94685.72;;;7.61;100.00
11682;BME280;5897;42.640;23.310;2022-12-18T01:24:43;94680.69;;;7.70;100.00
11682;BME280;5897;42.640;23.310;2022-12-18T01:27:09;94692.94;;;7.81;100.00
11682;BME280;5897;42.640;23.310;2022-12-18T01:29:36;94676.13;;;7.56;100.00
11682;BME280;5897;42.640;23.310;2022-12-18T01:32:03;94701.84;;;7.61;100.00
11682;BME280;5897;42.640;23.310;2022-12-18T01:34:30;94695.31;;;7.58;100.00
11682;BME280;5897;42.640;23.310;2022-12-18T01:36:57;94703.00;;;7.63;100.00
11682;BME280;5897;42.640;23.310;2022-12-18T01:39:25;94701.47;;;7.62;100.00
11682;BME280;5897;42.640;23.310;2022-12-18T01:41:52;94708.00;;;7.65;100.00
11682;BME280;5897;42.640;23.310;2022-12-18T01:45:00;94712.63;;;7.50;100.00
11682;BME280;5897;42.640;23.310;2022-12-18T01:47:32;94712.63;;;7.50;100.00
11682;BME280;5897;42.640;23.310;2022-12-18T01:50:02;94717.25;;;7.46;100.00
11682;BME280;5897;42.640;23.310;2022-12-18T01:52:31;94711.09;;;7.39;100.00
11682;BME280;5897;42.640;23.310;2022-12-18T01:55:01;94716.09;;;7.47;100.00
11682;BME280;5897;42.640;23.310;2022-12-18T01:57:29;94705.38;;;7.30;100.00
11682;BME280;5897;42.640;23.310;2022-12-18T02:00:00;94714.19;;;7.23;100.00
11682;BME280;5897;42.640;23.310;2022-12-18T02:02:28;94721.88;;;7.32;100.00
11682;BME280;5897;42.640;23.310;2022-12-18T02:04:56;94719.97;;;7.29;100.00
11682;BME280;5897;42.640;23.310;2022-12-18T02:07:32;94712.28;;;7.27;100.00
11682;BME280;5897;42.640;23.310;2022-12-18T02:10:07;94722.66;;;7.04;100.00
11682;BME280;5897;42.640;23.310;2022-12-18T02:12:42;94729.59;;;6.95;100.00
11682;BME280;5897;42.640;23.310;2022-12-18T02:15:16;94739.16;;;7.06;100.00
11682;BME280;5897;42.640;23.310;2022-12-18T02:17:50;94733.78;;;7.06;100.00
11682;BME280;5897;42.640;23.310;2022-12-18T02:20:22;94731.09;;;7.06;100.00
11682;BME280;5897;42.640;23.310;2022-12-18T02:23:06;94734.56;;;7.21;100.00
11682;BME280;5897;42.640;23.310;2022-12-18T02:26:00;94733.03;;;7.37;100.00
11682;BME280;5897;42.640;23.310;2022-12-18T02:28:31;94733.75;;;7.41;100.00
11682;BME280;5897;42.640;23.310;2022-12-18T02:31:02;94729.16;;;7.45;100.00
11682;BME280;5897;42.640;23.310;2022-12-18T02:33:33;94739.50;;;7.61;100.00
11682;BME280;5897;42.640;23.310;2022-12-18T02:36:01;94736.81;;;7.68;100.00
11682;BME280;5897;42.640;23.310;2022-12-18T02:38:30;94739.47;;;7.64;100.00
11682;BME280;5897;42.640;23.310;2022-12-18T02:40:59;94745.25;;;7.70;100.00
11682;BME280;5897;42.640;23.310;2022-12-18T02:43:26;94738.66;;;7.81;100.00
11682;BME280;5897;42.640;23.310;2022-12-18T02:45:55;94744.06;;;7.78;100.00
11682;BME280;5897;42.640;23.310;2022-12-18T02:48:24;94749.44;;;7.81;100.00
11682;BME280;5897;42.640;23.310;2022-12-18T02:50:59;94746.75;;;7.81;100.00
11682;BME280;5897;42.640;23.310;2022-12-18T02:53:33;94739.47;;;7.71;100.00
11682;BME280;5897;42.640;23.310;2022-12-18T02:56:10;94748.38;;;7.51;100.00
11682;BME280;5897;42.640;23.310;2022-12-18T02:58:47;94752.19;;;7.22;100.00
11682;BME280;5897;42.640;23.310;2022-12-18T03:01:21;94746.84;;;7.11;100.00
11682;BME280;5897;42.640;23.310;2022-12-18T03:03:53;94749.91;;;6.96;100.00
11682;BME280;5897;42.640;23.310;2022-12-18T03:06:25;94751.06;;;7.12;100.00
11682;BME280;5897;42.640;23.310;2022-12-18T03:08:57;94762.19;;;7.04;100.00
11682;BME280;5897;42.640;23.310;2022-12-18T03:11:28;94760.66;;;6.96;100.00
11682;BME280;5897;42.640;23.310;2022-12-18T03:14:23;94771.38;;;6.85;100.00
11682;BME280;5897;42.640;23.310;2022-12-18T03:16:54;94765.25;;;6.78;100.00
11682;BME280;5897;42.640;23.310;2022-12-18T03:19:27;94775.22;;;6.77;100.00
11682;BME280;5897;42.640;23.310;2022-12-18T03:21:56;94766.72;;;6.61;100.00
11682;BME280;5897;42.640;23.310;2022-12-18T03:24:26;94759.03;;;6.49;100.00
11682;BME280;5897;42.640;23.310;2022-12-18T03:26:58;94759.03;;;6.56;100.00
11682;BME280;5897;42.640;23.310;2022-12-18T03:29:30;94756.78;;;6.62;100.00
11682;BME280;5897;42.640;23.310;2022-12-18T03:32:03;94756.41;;;6.63;100.00
11682;BME280;5897;42.640;23.310;2022-12-18T03:34:34;94755.13;;;6.22;100.00
11682;BME280;5897;42.640;23.310;2022-12-18T03:37:02;94773.59;;;6.34;100.00
11682;BME280;5897;42.640;23.310;2022-12-18T03:39:29;94782.38;;;6.31;100.00
11682;BME280;5897;42.640;23.310;2022-12-18T03:42:02;94789.25;;;6.25;100.00
11682;BME280;5897;42.640;23.310;2022-12-18T03:44:35;94796.16;;;6.30;100.00
11682;BME280;5897;42.640;23.310;2022-12-18T03:47:08;94791.13;;;6.18;100.00
11682;BME280;5897;42.640;23.310;2022-12-18T03:49:38;94796.44;;;6.04;100.00
11682;BME280;5897;42.640;23.310;2022-12-18T03:52:17;94799.13;;;6.00;100.00
11682;BME280;5897;42.640;23.310;2022-12-18T03:54:47;94809.91;;;6.18;100.00
11682;BME280;5897;42.640;23.310;2022-12-18T03:57:17;94804.19;;;6.23;100.00
11682;BME280;5897;42.640;23.310;2022-12-18T03:59:46;94803.34;;;6.08;100.00
11682;BME280;5897;42.640;23.310;2022-12-18T04:02:15;94808.69;;;6.01;100.00
11682;BME280;5897;42.640;23.310;2022-12-18T04:04:44;94810.56;;;5.94;100.00
11682;BME280;5897;42.640;23.310;2022-12-18T04:07:13;94810.19;;;5.92;100.00
11682;BME280;5897;42.640;23.310;2022-12-18T04:09:41;94818.88;;;5.78;100.00
11682;BME280;5897;42.640;23.310;2022-12-18T04:12:08;94818.94;;;5.82;100.00
11682;BME280;5897;42.640;23.310;2022-12-18T04:14:37;94832.34;;;5.85;100.00
11682;BME280;5897;42.640;23.310;2022-12-18T04:17:03;94805.09;;;5.80;100.00
11682;BME280;5897;42.640;23.310;2022-12-18T04:19:30;94825.63;;;6.12;100.00
11682;BME280;5897;42.640;23.310;2022-12-18T04:21:57;94841.75;;;6.19;100.00
11682;BME280;5897;42.640;23.310;2022-12-18T04:24:24;94829.88;;;6.24;100.00
11682;BME280;5897;42.640;23.310;2022-12-18T04:26:50;94838.75;;;6.42;100.00
11682;BME280;5897;42.640;23.310;2022-12-18T04:29:17;94851.00;;;6.32;100.00
11682;BME280;5897;42.640;23.310;2022-12-18T04:31:45;94843.72;;;6.29;100.00
11682;BME280;5897;42.640;23.310;2022-12-18T04:34:12;94857.84;;;6.19;100.00
11682;BME280;5897;42.640;23.310;2022-12-18T04:36:40;94858.63;;;6.23;100.00
11682;BME280;5897;42.640;23.310;2022-12-18T04:39:06;94862.84;;;6.24;100.00
11682;BME280;5897;42.640;23.310;2022-12-18T04:41:33;94864.03;;;6.30;100.00
11682;BME280;5897;42.640;23.310;2022-12-18T04:44:00;94868.63;;;6.33;100.00
11682;BME280;5897;42.640;23.310;2022-12-18T04:46:27;94855.47;;;6.07;99.64
11682;BME280;5897;42.640;23.310;2022-12-18T04:48:55;94883.66;;;5.84;99.80
11682;BME280;5897;42.640;23.310;2022-12-18T04:51:21;94873.16;;;5.65;98.84
11682;BME280;5897;42.640;23.310;2022-12-18T04:53:48;94872.69;;;5.56;100.00
11682;BME280;5897;42.640;23.310;2022-12-18T04:56:15;94865.41;;;5.49;100.00
11682;BME280;5897;42.640;23.310;2022-12-18T04:58:43;94889.94;;;5.58;100.00
11682;BME280;5897;42.640;23.310;2022-12-18T05:01:11;94899.41;;;5.45;100.00
11682;BME280;5897;42.640;23.310;2022-12-18T05:03:38;94897.47;;;5.42;100.00
11682;BME280;5897;42.640;23.310;2022-12-18T05:06:07;94871.50;;;5.06;100.00
11682;BME280;5897;42.640;23.310;2022-12-18T05:08:34;94889.56;;;5.13;100.00
11682;BME280;5897;42.640;23.310;2022-12-18T05:11:03;94894.28;;;5.26;100.00
11682;BME280;5897;42.640;23.310;2022-12-18T05:13:31;94896.38;;;5.07;100.00
11682;BME280;5897;42.640;23.310;2022-12-18T05:15:58;94902.66;;;5.21;100.00
11682;BME280;5897;42.640;23.310;2022-12-18T05:18:25;94912.34;;;5.36;100.00
11682;BME280;5897;42.640;23.310;2022-12-18T05:20:53;94911.16;;;5.34;100.00
11682;BME280;5897;42.640;23.310;2022-12-18T05:23:23;94901.63;;;5.36;100.00
11682;BME280;5897;42.640;23.310;2022-12-18T05:25:51;94916.94;;;5.36;100.00
11682;BME280;5897;42.640;23.310;2022-12-18T05:28:18;94915.00;;;5.33;100.00
11682;BME280;5897;42.640;23.310;2022-12-18T05:30:48;94908.06;;;5.28;100.00
11682;BME280;5897;42.640;23.310;2022-12-18T05:33:16;94929.97;;;5.37;100.00
11682;BME280;5897;42.640;23.310;2022-12-18T05:35:43;94936.09;;;5.38;100.00
11682;BME280;5897;42.640;23.310;2022-12-18T05:38:10;94950.03;;;5.54;100.00
11682;BME280;5897;42.640;23.310;2022-12-18T05:40:41;94946.56;;;5.53;100.00
11682;BME280;5897;42.640;23.310;2022-12-18T05:43:08;94949.88;;;5.40;99.40
11682;BME280;5897;42.640;23.310;2022-12-18T05:45:36;94949.81;;;5.33;99.41
11682;BME280;5897;42.640;23.310;2022-12-18T05:48:04;94953.16;;;5.23;100.00
11682;BME280;5897;42.640;23.310;2022-12-18T05:50:33;94959.72;;;5.29;100.00
11682;BME280;5897;42.640;23.310;2022-12-18T05:53:00;94951.66;;;5.25;100.00
11682;BME280;5897;42.640;23.310;2022-12-18T05:55:27;94958.06;;;5.14;100.00
11682;BME280;5897;42.640;23.310;2022-12-18T05:57:55;94957.00;;;5.25;100.00
11682;BME280;5897;42.640;23.310;2022-12-18T06:00:22;94958.47;;;5.19;100.00
11682;BME280;5897;42.640;23.310;2022-12-18T06:02:49;94969.63;;;5.21;100.00
11682;BME280;5897;42.640;23.310;2022-12-18T06:05:16;94958.97;;;5.28;100.00
11682;BME280;5897;42.640;23.310;2022-12-18T06:07:42;94967.03;;;4.95;100.00
11682;BME280;5897;42.640;23.310;2022-12-18T06:10:09;94973.75;;;5.15;100.00
11682;BME280;5897;42.640;23.310;2022-12-18T06:12:37;94961.13;;;5.16;100.00
11682;BME280;5897;42.640;23.310;2022-12-18T06:15:06;94971.72;;;5.38;100.00
11682;BME280;5897;42.640;23.310;2022-12-18T06:17:33;94966.88;;;5.54;100.00
11682;BME280;5897;42.640;23.310;2022-12-18T06:20:00;94979.75;;;5.78;100.00
11682;BME280;5897;42.640;23.310;2022-12-18T06:22:27;94974.06;;;5.83;100.00
11682;BME280;5897;42.640;23.310;2022-12-18T06:24:54;94985.53;;;5.80;100.00
11682;BME280;5897;42.640;23.310;2022-12-18T06:27:21;94984.38;;;5.81;100.00
11682;BME280;5897;42.640;23.310;2022-12-18T06:29:47;94986.75;;;5.90;100.00
11682;BME280;5897;42.640;23.310;2022-12-18T06:32:16;94991.72;;;5.88;100.00
11682;BME280;5897;42.640;23.310;2022-12-18T06:34:42;94992.63;;;6.02;100.00
11682;BME280;5897;42.640;23.310;2022-12-18T06:37:09;94993.47;;;6.13;100.00
11682;BME280;5897;42.640;23.310;2022-12-18T06:39:36;95000.31;;;6.07;96.78
11682;BME280;5897;42.640;23.310;2022-12-18T06:42:03;95007.13;;;5.94;98.55
11682;BME280;5897;42.640;23.310;2022-12-18T06:44:30;95007.94;;;5.65;93.00
11682;BME280;5897;42.640;23.310;2022-12-18T06:46:58;95021.66;;;5.57;94.45
11682;BME280;5897;42.640;23.310;2022-12-18T06:49:26;95018.59;;;5.58;94.36
11682;BME280;5897;42.640;23.310;2022-12-18T06:51:53;95025.78;;;5.47;93.70
11682;BME280;5897;42.640;23.310;2022-12-18T06:54:19;95025.03;;;5.50;92.84
11682;BME280;5897;42.640;23.310;2022-12-18T06:56:46;95031.06;;;5.40;93.01
11682;BME280;5897;42.640;23.310;2022-12-18T06:59:13;95016.13;;;5.39;92.89
11682;BME280;5897;42.640;23.310;2022-12-18T07:01:40;95031.38;;;5.35;93.42
11682;BME280;5897;42.640;23.310;2022-12-18T07:04:07;95035.13;;;5.27;91.36
11682;BME280;5897;42.640;23.310;2022-12-18T07:06:35;95035.50;;;5.26;92.90
11682;BME280;5897;42.640;23.310;2022-12-18T07:09:02;95027.97;;;5.05;94.40
11682;BME280;5897;42.640;23.310;2022-12-18T07:11:29;95032.69;;;5.15;95.10
11682;BME280;5897;42.640;23.310;2022-12-18T07:13:59;95034.34;;;5.27;91.30
11682;BME280;5897;42.640;23.310;2022-12-18T07:16:26;95026.28;;;5.23;93.36
11682;BME280;5897;42.640;23.310;2022-12-18T07:18:54;95041.41;;;5.42;93.80
11682;BME280;5897;42.640;23.310;2022-12-18T07:21:22;95041.66;;;5.30;90.94
11682;BME280;5897;42.640;23.310;2022-12-18T07:23:51;95033.97;;;5.28;91.60
11682;BME280;5897;42.640;23.310;2022-12-18T07:26:19;95034.63;;;5.18;90.45
11682;BME280;5897;42.640;23.310;2022-12-18T07:28:47;95048.03;;;5.18;92.38
11682;BME280;5897;42.640;23.310;2022-12-18T07:31:16;95055.75;;;5.23;92.15
11682;BME280;5897;42.640;23.310;2022-12-18T07:33:44;95052.94;;;5.13;90.58
11682;BME280;5897;42.640;23.310;2022-12-18T07:36:11;95063.69;;;5.16;90.23
11682;BME280;5897;42.640;23.310;2022-12-18T07:38:38;95061.06;;;5.20;92.10
11682;BME280;5897;42.640;23.310;2022-12-18T07:41:08;95061.63;;;5.36;93.88
11682;BME280;5897;42.640;23.310;2022-12-18T07:43:35;95064.72;;;5.38;92.37
11682;BME280;5897;42.640;23.310;2022-12-18T07:46:02;95075.41;;;5.34;90.58
11682;BME280;5897;42.640;23.310;2022-12-18T07:48:29;95078.06;;;5.34;91.00
11682;BME280;5897;42.640;23.310;2022-12-18T07:50:58;95071.59;;;5.39;91.16
11682;BME280;5897;42.640;23.310;2022-12-18T07:53:25;95076.69;;;5.47;91.06
11682;BME280;5897;42.640;23.310;2022-12-18T07:55:55;95082.91;;;5.55;89.71
11682;BME280;5897;42.640;23.310;2022-12-18T07:58:23;95075.47;;;5.41;91.26
11682;BME280;5897;42.640;23.310;2022-12-18T08:00:51;95087.13;;;5.56;89.52
11682;BME280;5897;42.640;23.310;2022-12-18T08:03:18;95091.69;;;5.52;89.06
11682;BME280;5897;42.640;23.310;2022-12-18T08:05:45;95096.97;;;5.48;88.28
11682;BME280;5897;42.640;23.310;2022-12-18T08:08:14;95097.69;;;5.42;94.14
11682;BME280;5897;42.640;23.310;2022-12-18T08:10:41;95101.63;;;5.51;92.15
11682;BME280;5897;42.640;23.310;2022-12-18T08:13:08;95100.41;;;5.45;92.90
11682;BME280;5897;42.640;23.310;2022-12-18T08:15:36;95112.44;;;5.58;92.79
11682;BME280;5897;42.640;23.310;2022-12-18T08:18:03;95114.09;;;5.70;91.50
11682;BME280;5897;42.640;23.310;2022-12-18T08:20:30;95117.72;;;5.51;90.89
11682;BME280;5897;42.640;23.310;2022-12-18T08:22:56;95117.75;;;5.84;100.00
11682;BME280;5897;42.640;23.310;2022-12-18T08:25:23;95128.13;;;5.89;98.88
11682;BME280;5897;42.640;23.310;2022-12-18T08:27:50;95121.50;;;6.16;100.00
11682;BME280;5897;42.640;23.310;2022-12-18T08:30:17;95123.78;;;6.14;98.80
11682;BME280;5897;42.640;23.310;2022-12-18T08:32:45;95128.44;;;6.17;97.13
11682;BME280;5897;42.640;23.310;2022-12-18T08:35:14;95133.41;;;6.19;97.52
11682;BME280;5897;42.640;23.310;2022-12-18T08:37:41;95117.34;;;6.22;91.73
11682;BME280;5897;42.640;23.310;2022-12-18T08:40:09;95136.34;;;6.47;91.34
11682;BME280;5897;42.640;23.310;2022-12-18T08:42:36;95133.31;;;6.48;93.73
11682;BME280;5897;42.640;23.310;2022-12-18T08:45:20;95137.13;;;6.47;93.07
11682;BME280;5897;42.640;23.310;2022-12-18T08:47:48;95139.03;;;6.47;91.17
11682;BME280;5897;42.640;23.310;2022-12-18T08:50:16;95142.56;;;6.54;87.71
11682;BME280;5897;42.640;23.310;2022-12-18T08:52:43;95141.69;;;6.43;87.69
11682;BME280;5897;42.640;23.310;2022-12-18T08:55:09;95144.13;;;6.19;87.46
11682;BME280;5897;42.640;23.310;2022-12-18T08:57:36;95139.94;;;6.21;88.43
11682;BME280;5897;42.640;23.310;2022-12-18T09:00:04;95142.94;;;6.13;87.49
11682;BME280;5897;42.640;23.310;2022-12-18T09:02:31;95143.34;;;6.15;87.92
11682;BME280;5897;42.640;23.310;2022-12-18T09:04:59;95146.47;;;6.20;88.72
11682;BME280;5897;42.640;23.310;2022-12-18T09:07:26;95135.34;;;6.18;88.52
11682;BME280;5897;42.640;23.310;2022-12-18T09:09:52;95143.78;;;6.20;87.56
11682;BME280;5897;42.640;23.310;2022-12-18T09:12:20;95123.50;;;6.26;87.30
11682;BME280;5897;42.640;23.310;2022-12-18T09:14:46;95128.16;;;6.29;87.33
11682;BME280;5897;42.640;23.310;2022-12-18T09:17:13;95138.47;;;6.27;86.41
11682;BME280;5897;42.640;23.310;2022-12-18T09:19:40;95136.19;;;6.26;86.52
11682;BME280;5897;42.640;23.310;2022-12-18T09:22:08;95141.44;;;6.15;84.68
11682;BME280;5897;42.640;23.310;2022-12-18T09:24:36;95136.50;;;5.84;86.46
11682;BME280;5897;42.640;23.310;2022-12-18T09:27:02;95138.84;;;5.86;88.35
11682;BME280;5897;42.640;23.310;2022-12-18T09:29:30;95138.00;;;5.82;88.51
11682;BME280;5897;42.640;23.310;2022-12-18T09:31:57;95133.41;;;5.82;89.64
11682;BME280;5897;42.640;23.310;2022-12-18T09:34:23;95142.22;;;5.83;89.55
11682;BME280;5897;42.640;23.310;2022-12-18T09:36:50;95142.00;;;5.98;88.82
11682;BME280;5897;42.640;23.310;2022-12-18T09:39:18;95141.16;;;5.91;87.47
11682;BME280;5897;42.640;23.310;2022-12-18T09:41:47;95138.13;;;5.92;88.96
11682;BME280;5897;42.640;23.310;2022-12-18T09:44:22;95143.09;;;5.90;88.73
11682;BME280;5897;42.640;23.310;2022-12-18T09:46:56;95144.25;;;5.93;92.03
11682;BME280;5897;42.640;23.310;2022-12-18T09:49:28;95143.47;;;5.92;89.75
11682;BME280;5897;42.640;23.310;2022-12-18T09:52:02;95135.97;;;6.05;90.85
11682;BME280;5897;42.640;23.310;2022-12-18T09:54:35;95140.53;;;6.04;91.74
11682;BME280;5897;42.640;23.310;2022-12-18T09:57:04;95141.69;;;6.03;88.89
11682;BME280;5897;42.640;23.310;2022-12-18T09:59:34;95134.97;;;5.83;88.71
11682;BME280;5897;42.640;23.310;2022-12-18T10:02:13;95134.44;;;5.74;85.80
11682;BME280;5897;42.640;23.310;2022-12-18T10:04:41;95135.41;;;5.89;87.21
11682;BME280;5897;42.640;23.310;2022-12-18T10:07:13;95122.91;;;6.03;85.47
11682;BME280;5897;42.640;23.310;2022-12-18T10:09:52;95130.00;;;6.22;83.76
11682;BME280;5897;42.640;23.310;2022-12-18T10:12:29;95130.41;;;6.27;84.17
11682;BME280;5897;42.640;23.310;2022-12-18T10:15:05;95138.91;;;6.33;83.95
11682;BME280;5897;42.640;23.310;2022-12-18T10:17:38;95129.06;;;6.47;82.55
11682;BME280;5897;42.640;23.310;2022-12-18T10:20:13;95143.63;;;6.43;82.30
11682;BME280;5897;42.640;23.310;2022-12-18T10:22:50;95141.00;;;6.50;81.01
11682;BME280;5897;42.640;23.310;2022-12-18T10:25:24;95140.97;;;6.46;82.41
11682;BME280;5897;42.640;23.310;2022-12-18T10:27:55;95145.56;;;6.49;81.01
11682;BME280;5897;42.640;23.310;2022-12-18T10:30:23;95147.06;;;6.43;81.39
11682;BME280;5897;42.640;23.310;2022-12-18T10:32:50;95144.75;;;6.45;81.40
11682;BME280;5897;42.640;23.310;2022-12-18T10:35:19;95143.97;;;6.41;80.44
11682;BME280;5897;42.640;23.310;2022-12-18T10:38:00;95133.88;;;6.28;80.67
11682;BME280;5897;42.640;23.310;2022-12-18T10:40:29;95135.72;;;6.20;81.22
11682;BME280;5897;42.640;23.310;2022-12-18T10:43:11;95130.94;;;5.70;80.73
11682;BME280;5897;42.640;23.310;2022-12-18T10:45:39;95140.13;;;5.69;83.33
11682;BME280;5897;42.640;23.310;2022-12-18T10:48:18;95140.75;;;5.59;82.34
11682;BME280;5897;42.640;23.310;2022-12-18T10:50:47;95146.50;;;5.58;81.56
11682;BME280;5897;42.640;23.310;2022-12-18T10:53:19;95139.47;;;5.46;82.73
11682;BME280;5897;42.640;23.310;2022-12-18T10:55:48;95139.22;;;5.58;81.55
11682;BME280;5897;42.640;23.310;2022-12-18T10:58:23;95149.56;;;5.56;79.46
11682;BME280;5897;42.640;23.310;2022-12-18T11:01:09;95142.53;;;5.48;80.15
11682;BME280;5897;42.640;23.310;2022-12-18T11:03:38;95138.31;;;5.47;79.36
11682;BME280;5897;42.640;23.310;2022-12-18T11:06:07;95139.03;;;5.41;80.28
11682;BME280;5897;42.640;23.310;2022-12-18T11:08:35;95151.50;;;5.30;79.19
11682;BME280;5897;42.640;23.310;2022-12-18T11:11:06;95156.38;;;5.50;78.05
11682;BME280;5897;42.640;23.310;2022-12-18T11:13:33;95150.50;;;5.41;78.53
11682;BME280;5897;42.640;23.310;2022-12-18T11:16:00;95150.19;;;5.46;77.75
11682;BME280;5897;42.640;23.310;2022-12-18T11:18:29;95143.22;;;5.38;78.07
11682;BME280;5897;42.640;23.310;2022-12-18T11:20:58;95146.91;;;5.60;78.11
11682;BME280;5897;42.640;23.310;2022-12-18T11:23:26;95155.59;;;5.50;75.88
11682;BME280;5897;42.640;23.310;2022-12-18T11:25:56;95154.28;;;5.37;75.46
11682;BME280;5897;42.640;23.310;2022-12-18T11:28:37;95155.47;;;5.13;77.35
11682;BME280;5897;42.640;23.310;2022-12-18T11:31:21;95144.75;;;5.13;76.34
11682;BME280;5897;42.640;23.310;2022-12-18T11:34:00;95147.09;;;5.15;77.71
11682;BME280;5897;42.640;23.310;2022-12-18T11:36:30;95143.53;;;5.07;75.05
11682;BME280;5897;42.640;23.310;2022-12-18T11:39:02;95149.94;;;4.99;75.41
11682;BME280;5897;42.640;23.310;2022-12-18T11:41:34;95151.38;;;4.93;77.31
11682;BME280;5897;42.640;23.310;2022-12-18T11:44:23;95153.28;;;4.93;75.01
11682;BME280;5897;42.640;23.310;2022-12-18T11:46:55;95159.09;;;4.98;76.14
11682;BME280;5897;42.640;23.310;2022-12-18T11:49:28;95151.88;;;5.02;72.05
11682;BME280;5897;42.640;23.310;2022-12-18T11:52:03;95147.66;;;5.01;74.30
11682;BME280;5897;42.640;23.310;2022-12-18T11:54:31;95149.94;;;4.99;74.71
11682;BME280;5897;42.640;23.310;2022-12-18T11:57:05;95144.59;;;4.99;75.61
11682;BME280;5897;42.640;23.310;2022-12-18T11:59:44;95138.13;;;5.04;79.25
11682;BME280;5897;42.640;23.310;2022-12-18T12:02:29;95146.41;;;5.21;76.10
11682;BME280;5897;42.640;23.310;2022-12-18T12:05:12;95145.69;;;5.24;77.21
11682;BME280;5897;42.640;23.310;2022-12-18T12:07:49;95142.72;;;5.33;75.83
11682;BME280;5897;42.640;23.310;2022-12-18T12:10:28;95142.59;;;5.22;77.27
11682;BME280;5897;42.640;23.310;2022-12-18T12:13:13;95147.09;;;5.15;77.32
11682;BME280;5897;42.640;23.310;2022-12-18T12:15:49;95146.25;;;5.11;77.45
11682;BME280;5897;42.640;23.310;2022-12-18T12:18:26;95141.88;;;5.25;77.26
11682;BME280;5897;42.640;23.310;2022-12-18T12:21:02;95146.41;;;5.21;76.73
11682;BME280;5897;42.640;23.310;2022-12-18T12:23:39;95148.63;;;5.16;76.72
11682;BME280;5897;42.640;23.310;2022-12-18T12:26:10;95140.94;;;5.14;78.05
11682;BME280;5897;42.640;23.310;2022-12-18T12:28:59;95137.34;;;5.29;77.43
11682;BME280;5897;42.640;23.310;2022-12-18T12:31:44;95153.38;;;5.26;77.14
11682;BME280;5897;42.640;23.310;2022-12-18T12:34:17;95147.13;;;5.18;77.04
11682;BME280;5897;42.640;23.310;2022-12-18T12:36:56;95158.69;;;5.22;76.28
11682;BME280;5897;42.640;23.310;2022-12-18T12:39:29;95161.53;;;5.36;76.55
11682;BME280;5897;42.640;23.310;2022-12-18T12:41:58;95157.53;;;5.23;76.17
11682;BME280;5897;42.640;23.310;2022-12-18T12:44:45;95164.00;;;5.19;76.09
11682;BME280;5897;42.640;23.310;2022-12-18T12:47:19;95157.19;;;5.25;75.84
11682;BME280;5897;42.640;23.310;2022-12-18T12:49:47;95162.44;;;5.18;77.19
11682;BME280;5897;42.640;23.310;2022-12-18T12:52:20;95168.69;;;5.29;77.93
11682;BME280;5897;42.640;23.310;2022-12-18T12:54:51;95159.78;;;5.47;77.98
11682;BME280;5897;42.640;23.310;2022-12-18T12:57:21;95159.50;;;5.26;77.16
11682;BME280;5897;42.640;23.310;2022-12-18T12:59:59;95168.50;;;5.41;78.08
11682;BME280;5897;42.640;23.310;2022-12-18T13:02:33;95165.13;;;5.47;75.79
11682;BME280;5897;42.640;23.310;2022-12-18T13:05:09;95165.66;;;5.30;77.35
11682;BME280;5897;42.640;23.310;2022-12-18T13:07:40;95174.75;;;5.22;77.66
11682;BME280;5897;42.640;23.310;2022-12-18T13:13:05;95180.81;;;5.19;78.54
11682;BME280;5897;42.640;23.310;2022-12-18T13:15:42;95177.13;;;5.27;80.40
11682;BME280;5897;42.640;23.310;2022-12-18T13:18:19;95189.38;;;5.28;80.35
11682;BME280;5897;42.640;23.310;2022-12-18T13:20:48;95187.31;;;5.44;79.44
11682;BME280;5897;42.640;23.310;2022-12-18T13:23:27;95187.94;;;5.34;79.09